Time;durP1;ratioP1;P1;durP2;ratioP2;P2;SDS_P1;SDS_P2;PMS_P1;PMS_P2;Temp;Humidity;BMP_temperature;BMP_pressure;BME280_temperature;BME280_humidity;BME280_pressure;Samples;Min_cycle;Max_cycle;Signal;HPM_P1;HPM_P2
2022/03/12 00:02:21;;;;;;;9.07;5.87;;;12.60;99.90;;;;;;5011831;28;20191;-67
2022/03/12 00:04:47;;;;;;;8.60;5.63;;;12.60;99.90;;;;;;5014121;28;20547;-66
2022/03/12 00:07:14;;;;;;;9.60;5.77;;;12.50;99.90;;;;;;5001674;28;20208;-66
2022/03/12 00:09:40;;;;;;;8.77;6.27;;;12.60;99.90;;;;;;4995315;28;20195;-66
2022/03/12 00:12:07;;;;;;;6.40;5.63;;;12.60;99.90;;;;;;5007240;28;20253;-66
2022/03/12 00:14:34;;;;;;;9.10;5.70;;;12.50;99.90;;;;;;5013944;28;20195;-67
2022/03/12 00:17:00;;;;;;;10.80;5.43;;;12.60;99.90;;;;;;5013866;28;20203;-67
2022/03/12 00:19:26;;;;;;;7.47;6.00;;;12.50;99.90;;;;;;5012796;28;20526;-66
2022/03/12 00:21:52;;;;;;;8.30;5.37;;;12.30;99.90;;;;;;4999853;28;20207;-66
2022/03/12 00:24:18;;;;;;;9.27;5.70;;;12.20;99.90;;;;;;5005201;28;20194;-66
2022/03/12 00:26:45;;;;;;;8.10;6.13;;;12.50;99.90;;;;;;5000206;28;20201;-66
2022/03/12 00:29:14;;;;;;;8.63;6.20;;;12.50;99.90;;;;;;5008621;28;20251;-66
2022/03/12 00:31:49;;;;;;;9.10;5.97;;;12.40;99.90;;;;;;4994808;28;20222;-66
2022/03/12 00:34:15;;;;;;;8.57;5.80;;;12.40;99.90;;;;;;5008851;28;20201;-67
2022/03/12 00:36:42;;;;;;;10.03;4.83;;;12.40;99.90;;;;;;5009924;28;20282;-67
2022/03/12 00:39:10;;;;;;;12.30;5.57;;;12.30;99.90;;;;;;5001796;28;20196;-68
2022/03/12 00:41:38;;;;;;;8.10;5.67;;;12.30;99.90;;;;;;5008963;28;20199;-66
2022/03/12 00:44:05;;;;;;;7.53;5.00;;;12.20;99.90;;;;;;5008892;28;20215;-66
2022/03/12 00:46:31;;;;;;;9.23;6.23;;;12.10;99.90;;;;;;4987755;28;20632;-66
2022/03/12 00:48:57;;;;;;;7.80;5.87;;;12.20;99.90;;;;;;4993586;28;20286;-67
2022/03/12 00:51:23;;;;;;;11.77;6.67;;;12.20;99.90;;;;;;5008844;28;20219;-66
2022/03/12 00:53:49;;;;;;;8.20;5.87;;;12.10;99.90;;;;;;5012215;28;20223;-66
2022/03/12 00:56:14;;;;;;;8.03;5.00;;;12.20;99.90;;;;;;5010811;28;20222;-66
2022/03/12 00:58:45;;;;;;;6.37;4.20;;;12.10;99.90;;;;;;5011688;28;20183;-66
2022/03/12 01:01:11;;;;;;;8.23;5.07;;;11.90;99.90;;;;;;4992840;28;20176;-66
2022/03/12 01:03:37;;;;;;;6.27;4.53;;;12.00;99.90;;;;;;4982306;28;20219;-66
2022/03/12 01:06:05;;;;;;;5.67;4.90;;;12.00;99.90;;;;;;5012099;28;20221;-66
2022/03/12 01:08:33;;;;;;;7.47;5.10;;;11.90;99.90;;;;;;5012339;28;20270;-66
2022/03/12 01:11:02;;;;;;;6.33;4.63;;;11.80;99.90;;;;;;4994131;28;20211;-66
2022/03/12 01:13:28;;;;;;;5.30;3.87;;;11.80;99.90;;;;;;4994401;28;20195;-68
2022/03/12 01:15:54;;;;;;;7.30;3.97;;;11.80;99.90;;;;;;5011201;28;20191;-66
2022/03/12 01:18:21;;;;;;;5.30;4.13;;;11.60;99.90;;;;;;4999660;28;20202;-66
2022/03/12 01:20:49;;;;;;;5.90;4.23;;;11.60;99.90;;;;;;5000256;28;20217;-66
2022/03/12 01:23:17;;;;;;;7.37;5.13;;;11.60;99.90;;;;;;4995336;28;20191;-67
2022/03/12 01:25:46;;;;;;;5.10;4.00;;;11.60;99.90;;;;;;5010154;28;20240;-66
2022/03/12 01:28:14;;;;;;;5.83;4.17;;;11.60;99.90;;;;;;5012731;28;20629;-67
2022/03/12 01:30:42;;;;;;;5.37;3.60;;;11.60;99.90;;;;;;5013005;28;20207;-66
2022/03/12 01:33:08;;;;;;;7.17;3.57;;;11.70;99.90;;;;;;5007900;28;20188;-66
2022/03/12 01:35:34;;;;;;;4.43;3.50;;;11.70;99.90;;;;;;5000102;28;20372;-66
2022/03/12 01:38:02;;;;;;;4.40;3.43;;;11.70;99.90;;;;;;5004047;28;20286;-68
2022/03/12 01:40:28;;;;;;;4.33;3.47;;;11.70;99.90;;;;;;5011428;28;20183;-66
2022/03/12 01:42:54;;;;;;;7.07;3.03;;;11.70;99.90;;;;;;4985984;28;20203;-73
2022/03/12 01:45:26;;;;;;;5.47;3.77;;;11.70;99.90;;;;;;4993616;28;20194;-66
2022/03/12 01:47:56;;;;;;;4.70;3.77;;;11.70;99.90;;;;;;4993759;28;20661;-66
2022/03/12 01:50:33;;;;;;;5.00;3.63;;;11.70;99.90;;;;;;4994014;28;20262;-66
2022/03/12 01:53:02;;;;;;;8.53;3.77;;;11.70;99.90;;;;;;4988280;28;20254;-66
2022/03/12 01:55:30;;;;;;;6.27;3.20;;;11.70;99.90;;;;;;5001129;28;20210;-68
2022/03/12 01:58:02;;;;;;;4.77;3.23;;;11.70;99.90;;;;;;5027346;28;20592;-66
2022/03/12 02:00:37;;;;;;;4.90;3.47;;;11.70;99.90;;;;;;5003902;28;20558;-66
2022/03/12 02:03:03;;;;;;;3.53;2.93;;;11.80;99.90;;;;;;4994064;28;20641;-68
2022/03/12 02:05:29;;;;;;;8.40;4.03;;;11.80;99.90;;;;;;4993101;28;20246;-66
2022/03/12 02:07:58;;;;;;;5.27;2.83;;;11.80;99.90;;;;;;5010187;28;20232;-66
2022/03/12 02:10:25;;;;;;;5.00;3.10;;;11.80;99.90;;;;;;5011219;28;20218;-67
2022/03/12 02:12:51;;;;;;;5.37;3.23;;;11.80;99.90;;;;;;4992273;28;20640;-65
2022/03/12 02:15:22;;;;;;;5.20;4.30;;;11.80;99.90;;;;;;5000994;28;20188;-66
2022/03/12 02:17:51;;;;;;;3.57;2.90;;;11.80;99.90;;;;;;5000995;28;20191;-66
2022/03/12 02:20:20;;;;;;;4.07;3.17;;;11.70;99.90;;;;;;4996887;28;20192;-65
2022/03/12 02:22:53;;;;;;;4.03;3.63;;;11.60;99.90;;;;;;5004232;28;20187;-66
2022/03/12 02:25:28;;;;;;;4.83;3.60;;;11.60;99.90;;;;;;4998388;28;20592;-66
2022/03/12 02:27:56;;;;;;;5.40;3.63;;;11.60;99.90;;;;;;4998725;28;20222;-66
2022/03/12 02:30:24;;;;;;;4.03;3.53;;;11.60;99.90;;;;;;5012138;28;20215;-66
2022/03/12 02:32:54;;;;;;;3.40;3.00;;;11.50;99.90;;;;;;5001677;28;20190;-65
2022/03/12 02:35:24;;;;;;;3.97;3.37;;;11.40;99.90;;;;;;5015966;28;20767;-66
2022/03/12 02:37:52;;;;;;;6.37;4.57;;;11.60;99.90;;;;;;4997689;28;20555;-65
2022/03/12 02:40:18;;;;;;;5.90;3.83;;;11.50;99.90;;;;;;4984072;28;20266;-65
2022/03/12 02:42:44;;;;;;;6.47;4.17;;;11.50;99.90;;;;;;5012522;28;20613;-65
2022/03/12 02:45:10;;;;;;;7.60;4.53;;;11.50;99.90;;;;;;5004048;28;20242;-65
2022/03/12 02:47:40;;;;;;;6.83;4.60;;;11.50;99.90;;;;;;5005983;28;20219;-65
2022/03/12 02:50:09;;;;;;;5.50;3.77;;;11.50;99.90;;;;;;5014960;28;20559;-66
2022/03/12 02:52:41;;;;;;;5.40;4.47;;;11.60;99.90;;;;;;5012278;28;20220;-66
2022/03/12 02:55:12;;;;;;;6.30;4.20;;;11.60;99.90;;;;;;5002223;28;20258;-66
2022/03/12 02:57:40;;;;;;;6.73;4.50;;;11.60;99.90;;;;;;5009122;28;20184;-66
2022/03/12 03:00:08;;;;;;;6.93;4.73;;;11.60;99.90;;;;;;5011396;28;20214;-66
2022/03/12 03:02:41;;;;;;;5.87;4.60;;;11.60;99.90;;;;;;5015392;28;20199;-66
2022/03/12 03:08:05;;;;;;;5.47;4.30;;;11.70;99.90;;;;;;4995859;28;20214;-66
2022/03/12 03:10:39;;;;;;;5.87;5.17;;;11.70;99.90;;;;;;4996717;28;20212;-66
2022/03/12 03:13:16;;;;;;;8.37;4.50;;;11.70;99.90;;;;;;4996489;28;20188;-66
2022/03/12 03:15:49;;;;;;;7.23;5.10;;;11.60;99.90;;;;;;4998529;28;20187;-66
2022/03/12 03:18:20;;;;;;;8.17;4.87;;;11.50;99.90;;;;;;5003307;28;20228;-66
2022/03/12 03:20:46;;;;;;;6.13;4.70;;;11.60;99.90;;;;;;5004487;28;20191;-66
2022/03/12 03:23:13;;;;;;;8.77;4.13;;;11.50;99.90;;;;;;5014126;28;20191;-66
2022/03/12 03:25:39;;;;;;;6.43;5.10;;;11.40;99.90;;;;;;5008186;28;20246;-65
2022/03/12 03:28:06;;;;;;;9.50;4.80;;;11.40;99.90;;;;;;5001359;28;20595;-66
2022/03/12 03:30:39;;;;;;;5.67;4.77;;;11.40;99.90;;;;;;5010162;28;20208;-65
2022/03/12 03:33:13;;;;;;;6.90;4.83;;;11.50;99.90;;;;;;4997856;28;20187;-66
2022/03/12 03:35:39;;;;;;;6.37;4.93;;;11.50;99.90;;;;;;5010368;28;20195;-66
2022/03/12 03:38:09;;;;;;;6.53;4.57;;;11.50;99.90;;;;;;4995813;28;20294;-66
2022/03/12 03:40:36;;;;;;;6.63;5.07;;;11.60;99.90;;;;;;5003346;28;20210;-66
2022/03/12 03:43:01;;;;;;;6.17;5.07;;;11.40;99.90;;;;;;5013427;28;20192;-66
2022/03/12 03:45:29;;;;;;;9.20;5.47;;;11.30;99.90;;;;;;5013389;28;20188;-66
2022/03/12 03:47:56;;;;;;;8.63;4.57;;;11.30;99.90;;;;;;5010434;28;20176;-66
2022/03/12 03:50:25;;;;;;;5.10;4.47;;;11.20;99.90;;;;;;4994819;28;20730;-66
2022/03/12 03:53:03;;;;;;;6.67;4.97;;;11.20;99.90;;;;;;5011639;28;20219;-66
2022/03/12 03:55:32;;;;;;;8.00;5.53;;;11.30;99.90;;;;;;5014654;28;20171;-66
2022/03/12 03:57:59;;;;;;;8.80;4.90;;;11.20;99.90;;;;;;4995372;28;20635;-66
2022/03/12 04:00:25;;;;;;;7.53;5.00;;;11.20;99.90;;;;;;5012960;28;20192;-66
2022/03/12 04:02:55;;;;;;;6.47;4.90;;;11.30;99.90;;;;;;5012366;28;20195;-65
2022/03/12 04:05:22;;;;;;;9.47;5.73;;;11.30;99.90;;;;;;5010635;28;20274;-66
2022/03/12 04:07:47;;;;;;;9.10;5.50;;;11.30;99.90;;;;;;4995044;28;20279;-66
2022/03/12 04:10:13;;;;;;;7.47;5.20;;;11.30;99.90;;;;;;4995380;28;20349;-66
2022/03/12 04:12:39;;;;;;;7.43;5.20;;;11.30;99.90;;;;;;5010639;28;20211;-66
2022/03/12 04:15:05;;;;;;;7.77;5.17;;;11.30;99.90;;;;;;4977928;28;20274;-67
2022/03/12 04:17:33;;;;;;;6.63;4.47;;;11.30;99.90;;;;;;4995042;28;20196;-66
2022/03/12 04:19:59;;;;;;;8.13;5.77;;;11.30;99.90;;;;;;5012491;28;20214;-65
2022/03/12 04:22:25;;;;;;;6.67;4.83;;;11.10;99.90;;;;;;4996211;28;20195;-66
2022/03/12 04:24:51;;;;;;;7.97;4.70;;;11.10;99.90;;;;;;4998999;28;20194;-66
2022/03/12 04:27:16;;;;;;;12.03;5.80;;;11.20;99.90;;;;;;5002228;28;20188;-66
2022/03/12 04:29:42;;;;;;;9.03;4.83;;;11.30;99.90;;;;;;5009407;28;20203;-66
2022/03/12 04:32:10;;;;;;;7.00;4.73;;;11.30;99.90;;;;;;5008412;28;20231;-66
2022/03/12 04:34:36;;;;;;;7.30;4.07;;;11.30;99.90;;;;;;5002944;28;20527;-66
2022/03/12 04:37:03;;;;;;;7.43;4.63;;;11.40;99.90;;;;;;4977253;28;20237;-66
2022/03/12 04:39:30;;;;;;;6.37;4.60;;;11.40;99.90;;;;;;4991474;28;20187;-66
2022/03/12 04:41:56;;;;;;;7.47;4.27;;;11.50;99.90;;;;;;4994641;28;20226;-66
2022/03/12 04:44:22;;;;;;;6.77;5.00;;;11.50;99.90;;;;;;4995944;28;20188;-66
2022/03/12 04:46:48;;;;;;;6.60;4.67;;;11.50;99.90;;;;;;5007363;28;20202;-66
2022/03/12 04:49:14;;;;;;;6.63;4.13;;;11.50;99.90;;;;;;5003075;28;20192;-66
2022/03/12 04:51:42;;;;;;;9.10;4.77;;;11.40;99.90;;;;;;5001228;28;20262;-66
2022/03/12 04:54:08;;;;;;;4.70;3.90;;;11.50;99.90;;;;;;4999236;28;20282;-66
2022/03/12 04:56:34;;;;;;;7.80;5.13;;;11.60;99.90;;;;;;5008676;28;20203;-66
2022/03/12 04:59:00;;;;;;;8.37;4.63;;;11.40;99.90;;;;;;4994422;28;20230;-66
2022/03/12 05:01:26;;;;;;;6.40;4.20;;;11.40;99.90;;;;;;4991232;28;20214;-66
2022/03/12 05:03:52;;;;;;;8.87;4.37;;;11.30;99.90;;;;;;4986109;28;20558;-68
2022/03/12 05:06:19;;;;;;;5.50;4.27;;;11.20;99.90;;;;;;4993268;28;20249;-66
2022/03/12 05:08:46;;;;;;;8.10;5.30;;;11.20;99.90;;;;;;4997843;28;20199;-66
2022/03/12 05:11:12;;;;;;;7.80;4.63;;;11.10;99.90;;;;;;5012011;28;20211;-68
2022/03/12 05:13:38;;;;;;;7.50;4.33;;;11.00;99.90;;;;;;4999834;28;20198;-68
2022/03/12 05:16:06;;;;;;;6.67;4.50;;;10.90;99.90;;;;;;5001933;28;20202;-66
2022/03/12 05:18:33;;;;;;;11.07;5.73;;;10.80;99.90;;;;;;5004038;28;20180;-67
2022/03/12 05:20:59;;;;;;;7.17;4.57;;;10.80;99.90;;;;;;4993542;28;20187;-67
2022/03/12 05:23:26;;;;;;;7.63;4.30;;;10.90;99.90;;;;;;5004693;28;20195;-70
2022/03/12 05:25:52;;;;;;;6.00;4.33;;;10.80;99.90;;;;;;4997985;28;20192;-70
2022/03/12 05:28:31;;;;;;;8.83;4.33;;;10.70;99.90;;;;;;4994752;28;20192;-70
2022/03/12 05:30:59;;;;;;;8.07;4.50;;;10.60;99.90;;;;;;5008517;28;20571;-70
2022/03/12 05:33:26;;;;;;;11.73;4.93;;;10.60;99.90;;;;;;4991544;28;20200;-72
2022/03/12 05:35:53;;;;;;;4.87;3.97;;;10.60;99.90;;;;;;5002966;28;20187;-70
2022/03/12 05:38:19;;;;;;;8.67;4.97;;;10.50;99.90;;;;;;5005189;28;20191;-69
2022/03/12 05:40:46;;;;;;;10.00;4.83;;;10.50;99.90;;;;;;5009261;28;20294;-72
2022/03/12 05:43:13;;;;;;;5.43;4.07;;;10.50;99.90;;;;;;5008978;28;20183;-68
2022/03/12 05:45:39;;;;;;;6.20;4.03;;;10.50;99.90;;;;;;5011523;28;20187;-71
2022/03/12 05:48:09;;;;;;;6.30;3.80;;;10.50;99.90;;;;;;5014972;28;20204;-70
2022/03/12 05:50:36;;;;;;;4.97;3.77;;;10.50;99.90;;;;;;5012214;28;20246;-72
2022/03/12 05:53:02;;;;;;;12.23;4.70;;;10.50;99.90;;;;;;4985275;28;20184;-68
2022/03/12 05:55:28;;;;;;;3.77;3.23;;;10.40;99.90;;;;;;5004997;28;20671;-71
2022/03/12 05:57:53;;;;;;;6.80;4.50;;;10.40;99.90;;;;;;4996168;28;20188;-70
2022/03/12 06:00:19;;;;;;;5.70;3.90;;;10.40;99.90;;;;;;4998738;28;20200;-70
2022/03/12 06:02:51;;;;;;;5.50;5.00;;;10.50;99.90;;;;;;4992477;28;20196;-70
2022/03/12 06:05:23;;;;;;;6.13;4.17;;;10.40;99.90;;;;;;5000136;28;20234;-70
2022/03/12 06:07:50;;;;;;;9.90;4.80;;;10.40;99.90;;;;;;4996313;28;20254;-70
2022/03/12 06:10:19;;;;;;;4.17;3.73;;;10.30;99.90;;;;;;5007008;28;20219;-71
2022/03/12 06:12:45;;;;;;;4.33;3.67;;;10.30;99.90;;;;;;4997041;28;20196;-70
2022/03/12 06:15:16;;;;;;;9.13;3.80;;;10.30;99.90;;;;;;4995007;28;20223;-69
2022/03/12 06:17:43;;;;;;;7.87;4.80;;;10.30;99.90;;;;;;4998549;28;20198;-67
2022/03/12 06:20:12;;;;;;;9.00;5.33;;;10.30;99.90;;;;;;5015652;28;20188;-69
2022/03/12 06:22:38;;;;;;;6.43;4.10;;;10.30;99.90;;;;;;4979870;28;20184;-68
2022/03/12 06:25:10;;;;;;;5.63;4.07;;;10.30;99.90;;;;;;5013713;28;20302;-70
2022/03/12 06:27:37;;;;;;;6.77;5.03;;;10.30;99.90;;;;;;5006911;28;20184;-68
2022/03/12 06:30:05;;;;;;;7.07;3.70;;;10.40;99.90;;;;;;5010932;28;20180;-68
2022/03/12 06:32:31;;;;;;;7.87;4.20;;;10.50;99.90;;;;;;4996835;28;20188;-69
2022/03/12 06:34:58;;;;;;;8.37;4.83;;;10.50;99.90;;;;;;4996022;28;20195;-68
2022/03/12 06:37:25;;;;;;;6.93;3.80;;;10.50;99.90;;;;;;4995110;28;20226;-68
2022/03/12 06:39:51;;;;;;;5.03;4.07;;;10.40;99.90;;;;;;4991461;28;20188;-68
2022/03/12 06:42:17;;;;;;;4.03;3.57;;;10.40;99.90;;;;;;5014883;28;20671;-68
2022/03/12 06:44:43;;;;;;;5.90;3.30;;;10.50;99.90;;;;;;5013595;28;20321;-69
2022/03/12 06:47:10;;;;;;;4.87;3.50;;;10.50;99.90;;;;;;5007431;28;20710;-68
2022/03/12 06:49:39;;;;;;;7.83;3.70;;;10.60;99.90;;;;;;4998579;28;20219;-68
2022/03/12 06:52:06;;;;;;;4.83;3.90;;;10.70;99.90;;;;;;4996872;28;20220;-68
2022/03/12 06:54:33;;;;;;;6.20;4.03;;;10.60;99.90;;;;;;5014343;28;20191;-68
2022/03/12 06:57:02;;;;;;;10.83;4.10;;;10.50;99.90;;;;;;5009715;28;20195;-68
2022/03/12 06:59:27;;;;;;;4.97;3.60;;;10.50;99.90;;;;;;4997266;28;20395;-69
2022/03/12 07:01:53;;;;;;;7.50;5.03;;;10.60;99.90;;;;;;5009445;28;20664;-68
2022/03/12 07:04:21;;;;;;;5.57;3.40;;;10.70;99.90;;;;;;4997335;28;20207;-69
2022/03/12 07:06:47;;;;;;;7.73;5.00;;;10.80;99.90;;;;;;4994827;28;20184;-68
2022/03/12 07:09:13;;;;;;;9.77;4.60;;;10.80;99.90;;;;;;4992767;28;20191;-68
2022/03/12 07:11:39;;;;;;;10.03;4.50;;;10.80;99.90;;;;;;4996239;28;20746;-68
2022/03/12 07:14:05;;;;;;;5.57;3.80;;;10.90;99.90;;;;;;5009348;28;20191;-68
2022/03/12 07:16:30;;;;;;;4.77;3.27;;;11.00;99.90;;;;;;4997418;28;20194;-68
2022/03/12 07:18:57;;;;;;;9.43;4.17;;;11.30;99.90;;;;;;4989275;28;20202;-69
2022/03/12 07:21:23;;;;;;;6.93;4.50;;;11.40;99.90;;;;;;4988730;28;20235;-68
2022/03/12 07:23:49;;;;;;;13.83;4.10;;;11.60;99.90;;;;;;4990236;28;20195;-68
2022/03/12 07:26:15;;;;;;;3.97;3.07;;;11.90;99.90;;;;;;5012635;28;20597;-68
2022/03/12 07:28:41;;;;;;;5.43;3.40;;;11.90;99.90;;;;;;5014854;28;20183;-69
2022/03/12 07:31:07;;;;;;;5.20;3.63;;;12.10;99.90;;;;;;5013379;28;20211;-68
2022/03/12 07:33:33;;;;;;;4.97;3.83;;;12.00;99.90;;;;;;5010376;28;20556;-69
2022/03/12 07:35:59;;;;;;;4.80;3.53;;;12.20;99.90;;;;;;4997125;28;20194;-68
2022/03/12 07:38:25;;;;;;;5.20;3.47;;;12.60;99.90;;;;;;4993643;28;20645;-68
2022/03/12 07:40:50;;;;;;;7.57;4.53;;;12.90;99.90;;;;;;4996050;28;20192;-71
2022/03/12 07:43:16;;;;;;;6.22;3.45;;;13.30;99.90;;;;;;4999617;28;20266;-69
2022/03/12 07:45:43;;;;;;;4.05;3.50;;;13.50;99.90;;;;;;5009956;28;20218;-69
2022/03/12 07:48:09;;;;;;;9.60;4.95;;;13.60;99.90;;;;;;4994668;28;20192;-69
2022/03/12 07:50:35;;;;;;;7.03;4.25;;;13.60;99.90;;;;;;5012102;28;20227;-69
2022/03/12 07:53:01;;;;;;;3.70;3.17;;;13.70;99.90;;;;;;4996309;28;20216;-69
2022/03/12 07:55:26;;;;;;;5.93;3.23;;;13.40;99.90;;;;;;4994225;28;20196;-69
2022/03/12 07:57:52;;;;;;;6.70;3.60;;;13.40;99.90;;;;;;4994231;28;20665;-69
2022/03/12 08:00:18;;;;;;;11.03;3.53;;;13.00;99.90;;;;;;4995094;28;20202;-69
2022/03/12 08:02:49;;;;;;;8.85;3.97;;;12.90;99.90;;;;;;4995389;28;20192;-68
2022/03/12 08:05:21;;;;;;;4.45;2.97;;;12.90;99.90;;;;;;4994377;28;20206;-68
2022/03/12 08:07:47;;;;;;;9.73;3.77;;;12.70;99.90;;;;;;4997904;28;20537;-68
2022/03/12 08:10:12;;;;;;;4.83;3.37;;;12.50;99.90;;;;;;4993363;28;20222;-68
2022/03/12 08:12:38;;;;;;;4.20;3.73;;;12.30;99.90;;;;;;5005031;28;20543;-68
2022/03/12 08:15:05;;;;;;;7.63;4.70;;;12.20;99.90;;;;;;5012420;28;20671;-68
2022/03/12 08:17:31;;;;;;;9.63;3.43;;;12.60;99.90;;;;;;5011013;28;20188;-68
2022/03/12 08:19:59;;;;;;;6.17;3.77;;;12.50;99.90;;;;;;4994486;28;20214;-67
2022/03/12 08:22:26;;;;;;;4.83;3.57;;;12.30;99.90;;;;;;5007333;28;20258;-67
2022/03/12 08:24:54;;;;;;;6.77;3.10;;;12.10;99.90;;;;;;5013845;28;20238;-66
2022/03/12 08:27:23;;;;;;;6.93;3.40;;;12.00;99.90;;;;;;5001372;28;20192;-67
2022/03/12 08:29:49;;;;;;;7.47;3.20;;;12.20;99.90;;;;;;4995087;28;20199;-67
2022/03/12 08:32:15;;;;;;;3.53;2.80;;;12.60;99.90;;;;;;4998604;28;20207;-67
2022/03/12 08:34:41;;;;;;;10.17;3.27;;;12.80;99.90;;;;;;4995545;28;20221;-67
2022/03/12 08:37:07;;;;;;;8.00;3.80;;;13.10;99.90;;;;;;4994476;28;20208;-66
2022/03/12 08:39:34;;;;;;;4.27;3.40;;;13.10;99.90;;;;;;5009681;28;20226;-66
2022/03/12 08:41:59;;;;;;;11.90;4.07;;;13.00;99.90;;;;;;4995578;28;20234;-67
2022/03/12 08:44:26;;;;;;;10.07;4.33;;;12.60;99.90;;;;;;5013523;28;20195;-66
2022/03/12 08:46:52;;;;;;;7.33;3.47;;;12.40;99.90;;;;;;4963201;28;20192;-67
2022/03/12 08:49:18;;;;;;;7.87;3.30;;;12.30;99.90;;;;;;4993439;28;20273;-67
2022/03/12 08:51:44;;;;;;;12.60;4.17;;;12.40;99.90;;;;;;5008108;28;20296;-69
2022/03/12 08:54:10;;;;;;;10.37;4.40;;;12.30;99.90;;;;;;5000684;28;20231;-70
2022/03/12 08:56:36;;;;;;;9.13;3.93;;;12.40;99.90;;;;;;4985845;28;20184;-67
2022/03/12 08:59:04;;;;;;;4.97;3.53;;;12.60;99.90;;;;;;4994622;28;20739;-67
2022/03/12 09:01:33;;;;;;;5.67;3.27;;;12.60;99.90;;;;;;5008733;28;20196;-68
2022/03/12 09:03:59;;;;;;;3.57;2.87;;;12.80;99.90;;;;;;4998960;28;20223;-68
2022/03/12 09:06:27;;;;;;;4.50;3.27;;;12.80;99.90;;;;;;4975751;28;20200;-68
2022/03/12 09:08:53;;;;;;;10.93;4.20;;;12.80;99.90;;;;;;5009452;28;20238;-69
2022/03/12 09:11:19;;;;;;;5.90;3.45;;;13.00;99.90;;;;;;4995241;28;20231;-66
2022/03/12 09:13:46;;;;;;;9.88;3.72;;;12.90;99.90;;;;;;5011782;28;20637;-68
2022/03/12 09:16:14;;;;;;;5.90;2.88;;;13.00;99.90;;;;;;5013152;28;20187;-70
2022/03/12 09:18:41;;;;;;;4.25;2.88;;;13.10;99.90;;;;;;5005632;28;20188;-69
2022/03/12 09:21:07;;;;;;;4.65;3.38;;;13.10;99.90;;;;;;4992843;28;20196;-67
2022/03/12 09:23:34;;;;;;;4.72;3.65;;;13.10;99.90;;;;;;4995454;28;20187;-68
2022/03/12 09:26:00;;;;;;;8.02;2.92;;;12.80;99.90;;;;;;5005245;28;20194;-68
2022/03/12 09:28:26;;;;;;;8.25;3.00;;;12.80;99.90;;;;;;5011830;28;20190;-68
2022/03/12 09:30:52;;;;;;;3.83;2.50;;;12.60;99.90;;;;;;5004126;28;20572;-68
2022/03/12 09:33:21;;;;;;;6.07;2.90;;;12.70;99.90;;;;;;5007509;28;20187;-68
2022/03/12 09:35:47;;;;;;;10.10;3.38;;;12.90;99.90;;;;;;5002685;28;20192;-68
2022/03/12 09:38:14;;;;;;;7.43;2.50;;;13.10;99.90;;;;;;5000329;28;20270;-68
2022/03/12 09:40:41;;;;;;;6.97;2.88;;;13.20;99.90;;;;;;4995754;28;20278;-71
2022/03/12 09:43:07;;;;;;;5.90;2.92;;;13.20;99.90;;;;;;4984709;28;20257;-68
2022/03/12 09:45:32;;;;;;;4.88;3.28;;;13.30;99.90;;;;;;5000238;28;20656;-68
2022/03/12 09:47:59;;;;;;;6.68;3.00;;;13.40;99.90;;;;;;4978468;28;20187;-68
2022/03/12 09:50:24;;;;;;;5.82;2.95;;;13.60;99.90;;;;;;4994323;28;20359;-69
2022/03/12 09:52:50;;;;;;;8.07;2.88;;;13.70;99.90;;;;;;4993690;28;20274;-68
2022/03/12 09:55:19;;;;;;;3.72;2.65;;;13.90;99.90;;;;;;4992847;28;20188;-69
2022/03/12 09:57:46;;;;;;;3.30;2.38;;;14.20;99.90;;;;;;4986640;28;20199;-68
2022/03/12 10:00:13;;;;;;;3.80;2.15;;;14.10;99.90;;;;;;4993178;28;20724;-69
2022/03/12 10:02:39;;;;;;;3.42;2.00;;;14.10;99.90;;;;;;4993234;28;20271;-69
2022/03/12 10:05:05;;;;;;;3.17;2.03;;;14.00;99.90;;;;;;4996684;28;20191;-68
2022/03/12 10:07:31;;;;;;;6.60;2.85;;;13.70;99.90;;;;;;5011070;28;20282;-68
2022/03/12 10:09:57;;;;;;;6.63;2.35;;;13.60;99.90;;;;;;4986743;28;20283;-68
2022/03/12 10:12:23;;;;;;;3.58;1.90;;;13.60;99.90;;;;;;4994947;28;20242;-68
2022/03/12 10:14:49;;;;;;;5.05;2.63;;;13.70;99.90;;;;;;5005623;28;20217;-68
2022/03/12 10:17:18;;;;;;;2.60;2.40;;;13.60;99.90;;;;;;4995095;28;20198;-68
2022/03/12 10:19:45;;;;;;;4.13;2.70;;;13.70;99.90;;;;;;5011093;28;20187;-69
2022/03/12 10:22:11;;;;;;;3.35;1.80;;;13.80;99.90;;;;;;5011520;28;20203;-68
2022/03/12 10:24:40;;;;;;;3.38;2.20;;;14.00;99.90;;;;;;5001719;28;20190;-68
2022/03/12 10:27:06;;;;;;;2.55;1.60;;;14.20;99.90;;;;;;5010742;28;20592;-69
2022/03/12 10:29:34;;;;;;;4.00;2.00;;;14.40;99.90;;;;;;5007509;28;20183;-68
2022/03/12 10:32:21;;;;;;;3.75;1.52;;;14.60;99.90;;;;;;4996992;28;20569;-68
2022/03/12 10:34:52;;;;;;;2.28;1.60;;;14.70;99.90;;;;;;5011354;28;20187;-68
2022/03/12 10:37:25;;;;;;;2.90;2.15;;;14.60;99.90;;;;;;5000803;28;20184;-67
2022/03/12 10:40:11;;;;;;;9.15;2.10;;;14.40;99.90;;;;;;5013725;28;20187;-68
2022/03/12 10:42:44;;;;;;;4.88;2.40;;;14.50;99.90;;;;;;5008665;28;20644;-68
2022/03/12 10:45:16;;;;;;;6.55;2.50;;;14.50;99.90;;;;;;5016000;28;20644;-69
2022/03/12 10:47:45;;;;;;;5.10;2.00;;;14.70;99.90;;;;;;5027616;28;20263;-68
2022/03/12 10:50:15;;;;;;;2.75;2.45;;;15.00;99.90;;;;;;4996434;28;20180;-68
2022/03/12 10:52:46;;;;;;;2.33;2.13;;;15.50;99.90;;;;;;5010937;28;20215;-68
2022/03/12 10:55:19;;;;;;;2.03;1.58;;;15.60;99.90;;;;;;4996419;28;20188;-70
2022/03/12 10:58:05;;;;;;;5.13;1.90;;;15.70;99.90;;;;;;5013609;28;20176;-69
2022/03/12 11:00:37;;;;;;;4.20;2.30;;;15.70;99.90;;;;;;5010462;28;20597;-69
2022/03/12 11:03:05;;;;;;;11.48;2.28;;;15.70;99.90;;;;;;4996829;28;20637;-68
2022/03/12 11:05:35;;;;;;;4.68;2.30;;;15.60;99.90;;;;;;4995555;28;20191;-69
2022/03/12 11:08:24;;;;;;;5.05;2.15;;;15.50;99.90;;;;;;5013860;28;20199;-68
2022/03/12 11:11:01;;;;;;;5.32;2.10;;;15.50;99.90;;;;;;5012052;28;20215;-68
2022/03/12 11:13:52;;;;;;;5.25;1.92;;;15.50;99.90;;;;;;4996743;28;20226;-69
2022/03/12 11:16:24;;;;;;;3.75;1.90;;;15.60;99.90;;;;;;4996296;28;20187;-69
2022/03/12 11:18:53;;;;;;;4.13;1.92;;;15.70;99.90;;;;;;5013093;28;20180;-68
2022/03/12 11:21:28;;;;;;;2.63;1.75;;;15.70;99.90;;;;;;5009513;28;20188;-68
2022/03/12 11:23:55;;;;;;;4.82;2.00;;;15.80;99.90;;;;;;4995799;28;20185;-67
2022/03/12 11:26:21;;;;;;;1.65;1.38;;;16.00;99.90;;;;;;4995529;28;20184;-68
2022/03/12 11:28:58;;;;;;;5.28;1.83;;;16.00;99.90;;;;;;5007355;28;20188;-69
2022/03/12 11:31:53;;;;;;;4.03;1.77;;;16.10;99.90;;;;;;4997123;28;20223;-69
2022/03/12 11:34:36;;;;;;;6.28;1.90;;;16.00;99.90;;;;;;4997340;28;20203;-69
2022/03/12 11:37:07;;;;;;;3.85;1.70;;;16.10;99.90;;;;;;5001951;28;20184;-69
2022/03/12 11:40:03;;;;;;;4.15;2.35;;;15.90;99.90;;;;;;5005568;28;20190;-69
2022/03/12 11:42:33;;;;;;;7.43;1.67;;;15.80;99.90;;;;;;5001673;28;20192;-68
2022/03/12 11:45:04;;;;;;;1.40;1.20;;;15.60;99.90;;;;;;4995660;28;20169;-69
2022/03/12 11:47:35;;;;;;;2.88;2.03;;;15.60;99.90;;;;;;4995617;28;20191;-68
2022/03/12 11:50:04;;;;;;;2.90;1.58;;;15.60;99.90;;;;;;5013059;28;20183;-68
2022/03/12 11:52:30;;;;;;;4.78;1.63;;;15.90;99.90;;;;;;5009821;28;20579;-69
2022/03/12 11:54:57;;;;;;;5.68;1.33;;;16.10;99.90;;;;;;4996093;28;20648;-69
2022/03/12 11:57:30;;;;;;;3.40;1.60;;;16.10;99.90;;;;;;4994496;28;20188;-71
2022/03/12 11:59:58;;;;;;;3.40;1.58;;;16.00;99.90;;;;;;4995364;28;20187;-69
2022/03/12 12:02:25;;;;;;;6.63;2.13;;;16.10;99.90;;;;;;4995412;28;20199;-69
2022/03/12 12:04:52;;;;;;;4.05;1.45;;;16.20;99.90;;;;;;4996195;28;20178;-69
2022/03/12 12:07:23;;;;;;;2.30;1.45;;;16.20;99.90;;;;;;5009544;28;20671;-69
2022/03/12 12:09:49;;;;;;;6.80;2.00;;;16.20;99.90;;;;;;5009003;28;20218;-68
2022/03/12 12:12:21;;;;;;;3.15;1.13;;;16.30;99.90;;;;;;4995416;28;20239;-69
2022/03/12 12:14:47;;;;;;;2.92;1.67;;;16.40;99.90;;;;;;5004284;28;20187;-69
2022/03/12 12:17:13;;;;;;;3.75;1.80;;;16.40;99.90;;;;;;4995913;28;20187;-70
2022/03/12 12:19:38;;;;;;;10.55;1.83;;;16.30;99.90;;;;;;5005445;28;20619;-68
2022/03/12 12:22:07;;;;;;;5.78;2.28;;;16.20;99.90;;;;;;4994086;28;20560;-69
2022/03/12 12:24:36;;;;;;;6.43;1.25;;;16.00;99.90;;;;;;4994206;28;20565;-69
2022/03/12 12:27:04;;;;;;;4.10;1.92;;;15.90;99.90;;;;;;5005714;28;20640;-69
2022/03/12 12:29:49;;;;;;;6.65;1.80;;;16.20;99.90;;;;;;4997147;28;20724;-69
2022/03/12 12:32:23;;;;;;;5.10;1.70;;;16.40;99.90;;;;;;4996049;28;20202;-69
2022/03/12 12:35:04;;;;;;;7.93;2.38;;;16.40;99.90;;;;;;5012882;28;20176;-69
2022/03/12 12:37:41;;;;;;;2.67;1.35;;;16.50;99.90;;;;;;4994325;28;20952;-68
2022/03/12 12:40:13;;;;;;;8.23;2.00;;;16.20;99.90;;;;;;4994764;28;20176;-69
2022/03/12 12:42:42;;;;;;;7.55;1.65;;;16.00;99.90;;;;;;4999403;28;20547;-69
2022/03/12 12:45:20;;;;;;;5.30;2.00;;;15.90;99.90;;;;;;5009406;28;20191;-68
2022/03/12 12:47:46;;;;;;;2.92;1.67;;;16.00;99.90;;;;;;4994622;28;20241;-69
2022/03/12 12:50:25;;;;;;;10.25;3.92;;;16.00;99.90;;;;;;4977698;28;20614;-69
2022/03/12 12:53:29;;;;;;;3.03;1.67;;;16.10;99.90;;;;;;4993582;28;20195;-68
2022/03/12 12:56:19;;;;;;;7.10;2.28;;;16.20;99.90;;;;;;4994437;28;20262;-69